Time;durP1;ratioP1;P1;durP2;ratioP2;P2;SDS_P1;SDS_P2;PMS_P1;PMS_P2;Temp;Humidity;BMP_temperature;BMP_pressure;BME280_temperature;BME280_humidity;BME280_pressure;Samples;Min_cycle;Max_cycle;Signal;HPM_P1;HPM_P2
2021/03/15 00:01:23;;;;;;;96.70;38.63;;;;;;;3.55;64.36;96384.48;1787288;77;25698;-84
2021/03/15 00:03:50;;;;;;;91.37;35.78;;;;;;;3.52;64.24;96392.86;1832781;77;25850;-84
2021/03/15 00:06:17;;;;;;;71.80;27.95;;;;;;;3.48;64.21;96395.11;1844097;77;25759;-84
2021/03/15 00:08:45;;;;;;;65.62;28.02;;;;;;;3.41;64.28;96394.70;1827939;77;27550;-85
2021/03/15 00:11:12;;;;;;;64.47;26.87;;;;;;;3.34;64.36;96399.17;1839651;77;25797;-84
2021/03/15 00:13:40;;;;;;;61.95;25.08;;;;;;;3.30;64.43;96393.38;1840391;77;26221;-85
2021/03/15 00:16:07;;;;;;;56.10;23.45;;;;;;;3.29;64.50;96390.90;1851494;77;26255;-84
2021/03/15 00:18:34;;;;;;;48.70;20.97;;;;;;;3.31;64.54;96393.70;1851655;77;25761;-84
2021/03/15 00:21:02;;;;;;;50.33;23.95;;;;;;;3.31;64.44;96390.20;1821356;77;27563;-85
2021/03/15 00:23:29;;;;;;;48.65;21.95;;;;;;;3.32;64.55;96389.19;1817963;77;25885;-85
2021/03/15 00:25:56;;;;;;;48.23;22.07;;;;;;;3.30;64.54;96388.05;1845472;77;25694;-85
2021/03/15 00:28:23;;;;;;;45.43;21.55;;;;;;;3.31;64.63;96382.20;1851469;77;25876;-84
2021/03/15 00:30:51;;;;;;;48.60;22.62;;;;;;;3.28;64.78;96378.07;1844894;77;25753;-85
2021/03/15 00:33:18;;;;;;;56.98;22.95;;;;;;;3.24;64.85;96378.98;1822852;77;27486;-84
2021/03/15 00:35:45;;;;;;;56.68;23.95;;;;;;;3.19;64.83;96369.88;1833568;77;25656;-84
2021/03/15 00:38:13;;;;;;;50.43;21.52;;;;;;;3.17;64.84;96375.91;1849114;77;25796;-84
2021/03/15 00:40:40;;;;;;;54.08;22.95;;;;;;;3.10;64.80;96367.86;1830908;77;25927;-84
2021/03/15 00:43:07;;;;;;;48.25;20.60;;;;;;;3.04;64.73;96372.60;1851428;77;25848;-84
2021/03/15 00:45:35;;;;;;;46.23;21.23;;;;;;;2.95;64.66;96373.75;1851528;77;27532;-84
2021/03/15 00:48:02;;;;;;;59.60;23.80;;;;;;;2.86;64.59;96364.22;1830620;77;26535;-84
2021/03/15 00:50:34;;;;;;;43.65;19.30;;;;;;;2.79;64.67;96367.30;1841636;77;25785;-84
2021/03/15 00:53:01;;;;;;;39.73;17.50;;;;;;;2.74;64.74;96365.73;1837375;77;26173;-84
2021/03/15 00:55:29;;;;;;;45.00;18.92;;;;;;;2.74;64.77;96368.39;1827878;77;25765;-84
2021/03/15 00:57:56;;;;;;;31.62;15.35;;;;;;;2.67;64.57;96370.13;1851421;77;27489;-84
2021/03/15 01:00:29;;;;;;;33.42;14.87;;;;;;;2.58;64.63;96373.93;1847899;77;26118;-84
2021/03/15 01:02:56;;;;;;;32.17;14.70;;;;;;;2.46;64.61;96374.41;1833199;77;25746;-84
2021/03/15 01:05:35;;;;;;;31.07;13.78;;;;;;;2.40;64.72;96375.16;1851528;77;25917;-84
2021/03/15 01:08:05;;;;;;;25.50;12.10;;;;;;;2.30;64.76;96373.27;1836451;77;25847;-84
2021/03/15 01:10:35;;;;;;;25.23;11.78;;;;;;;2.23;64.86;96369.70;1802366;77;27517;-84
2021/03/15 01:13:04;;;;;;;25.10;13.15;;;;;;;2.17;65.01;96360.60;1831882;77;25760;-85
2021/03/15 01:15:33;;;;;;;26.48;13.38;;;;;;;2.14;65.18;96362.83;1827049;77;25674;-85
2021/03/15 01:18:01;;;;;;;31.68;15.72;;;;;;;2.08;65.29;96356.89;1818081;77;26780;-85
2021/03/15 01:20:29;;;;;;;42.80;19.07;;;;;;;2.00;65.44;96356.50;1840576;77;25869;-84
2021/03/15 01:22:57;;;;;;;37.70;16.32;;;;;;;2.03;65.77;96353.47;1818384;77;27486;-84
2021/03/15 01:25:31;;;;;;;34.85;15.72;;;;;;;2.06;65.85;96348.27;1837888;77;25747;-84
2021/03/15 01:27:59;;;;;;;42.70;19.62;;;;;;;2.08;65.95;96348.91;1812069;77;25718;-85
2021/03/15 01:30:31;;;;;;;48.30;24.63;;;;;;;2.14;66.03;96344.20;1832271;77;26838;-84
2021/03/15 01:32:59;;;;;;;55.15;26.75;;;;;;;2.11;66.05;96344.55;1802930;77;25707;-84
2021/03/15 01:35:27;;;;;;;67.82;30.85;;;;;;;2.11;66.13;96348.55;1851436;77;27480;-84
2021/03/15 01:37:55;;;;;;;76.25;32.63;;;;;;;2.14;66.21;96346.35;1851338;77;25853;-84
2021/03/15 01:40:24;;;;;;;69.67;32.05;;;;;;;2.13;66.33;96338.55;1842673;77;25873;-84
2021/03/15 01:42:52;;;;;;;61.58;32.50;;;;;;;2.17;66.47;96334.52;1837523;77;26783;-85
2021/03/15 01:45:19;;;;;;;66.85;34.00;;;;;;;2.18;66.46;96326.81;1827885;77;25865;-84
2021/03/15 01:47:48;;;;;;;61.95;30.57;;;;;;;2.26;66.56;96325.91;1851446;77;27488;-84
2021/03/15 01:50:18;;;;;;;69.45;31.37;;;;;;;2.29;66.57;96323.71;1846807;77;25733;-84
2021/03/15 01:52:48;;;;;;;65.87;31.35;;;;;;;2.30;66.60;96321.34;1818026;77;25818;-84
2021/03/15 01:55:18;;;;;;;60.75;30.25;;;;;;;2.28;66.60;96322.05;1844476;77;26836;-85
2021/03/15 01:57:47;;;;;;;50.73;25.70;;;;;;;2.30;66.60;96314.69;1837605;77;26338;-85
2021/03/15 02:00:17;;;;;;;51.55;24.77;;;;;;;2.35;66.60;96314.96;1819177;77;28544;-84
2021/03/15 02:02:52;;;;;;;63.35;28.85;;;;;;;2.37;66.56;96322.27;1851344;77;25843;-84
2021/03/15 02:05:20;;;;;;;69.15;28.95;;;;;;;2.38;66.66;96315.93;1821697;77;25659;-84
2021/03/15 02:07:47;;;;;;;50.52;23.40;;;;;;;2.34;66.68;96307.98;1827909;77;25861;-84
2021/03/15 02:10:15;;;;;;;45.30;21.95;;;;;;;2.32;66.68;96311.84;1823505;77;25852;-84
2021/03/15 02:12:56;;;;;;;38.00;19.05;;;;;;;2.35;66.78;96310.97;1833641;77;27534;-85
2021/03/15 02:15:35;;;;;;;37.95;18.87;;;;;;;2.31;66.70;96307.52;1809380;77;25683;-84
2021/03/15 02:18:33;;;;;;;39.08;19.70;;;;;;;2.30;66.73;96313.86;1798530;77;25794;-84
2021/03/15 02:21:41;;;;;;;39.88;19.30;;;;;;;2.34;66.77;96323.96;1836451;77;26676;-84
2021/03/15 02:24:37;;;;;;;45.58;21.77;;;;;;;2.34;66.75;96330.62;1834976;77;25741;-84
2021/03/15 02:27:31;;;;;;;45.63;22.73;;;;;;;2.34;66.77;96330.62;1737887;81;27492;-84
2021/03/15 02:30:24;;;;;;;46.25;21.68;;;;;;;2.38;66.79;96326.58;1737872;81;25697;-84
2021/03/15 02:33:28;;;;;;;43.35;19.55;;;;;;;2.41;66.82;96323.55;1738157;81;25708;-83
2021/03/15 02:35:57;;;;;;;37.93;18.87;;;;;;;2.42;66.79;96329.17;1737585;81;25781;-83
2021/03/15 02:38:30;;;;;;;46.40;23.87;;;;;;;2.44;66.88;96328.48;1712887;81;25841;-84
2021/03/15 02:40:59;;;;;;;;;;;;;;;2.44;66.91;96332.98;1740510;81;28574;-83
2021/03/15 02:43:44;;;;;;;53.42;25.23;;;;;;;2.46;67.09;96337.63;1737576;81;25686;-84
2021/03/15 02:46:18;;;;;;;52.78;26.87;;;;;;;2.43;66.98;96334.82;1736045;81;25847;-84
2021/03/15 02:48:50;;;;;;;66.12;29.35;;;;;;;2.44;66.94;96335.14;1737801;80;26018;-84
2021/03/15 02:51:21;;;;;;;54.13;23.33;;;;;;;2.46;67.08;96341.11;1738330;80;26360;-85
2021/03/15 02:53:49;;;;;;;63.25;30.50;;;;;;;2.45;67.17;96343.45;1737962;81;27613;-84
2021/03/15 02:56:23;;;;;;;59.77;27.27;;;;;;;2.42;67.18;96343.82;1737815;80;25814;-84
2021/03/15 02:58:56;;;;;;;47.80;24.70;;;;;;;2.41;67.18;96345.36;1738056;80;25752;-84
2021/03/15 03:01:25;;;;;;;41.63;22.40;;;;;;;2.41;67.26;96349.36;1707832;80;25815;-85
2021/03/15 03:03:55;;;;;;;40.15;20.32;;;;;;;2.38;67.30;96345.22;1761741;77;25811;-85
2021/03/15 03:06:26;;;;;;;38.05;19.77;;;;;;;2.39;67.25;96348.72;1802810;77;28478;-84
2021/03/15 03:08:55;;;;;;;38.30;20.20;;;;;;;2.38;67.21;96355.05;1787103;77;26106;-84
2021/03/15 03:11:25;;;;;;;35.45;18.80;;;;;;;2.38;67.14;96351.88;1802712;77;26256;-85
2021/03/15 03:13:53;;;;;;;35.95;19.52;;;;;;;2.39;67.21;96352.20;1795277;77;25819;-84
2021/03/15 03:16:24;;;;;;;44.95;20.72;;;;;;;2.40;67.26;96349.86;1831982;77;26577;-84
2021/03/15 03:18:54;;;;;;;38.95;21.25;;;;;;;2.40;67.28;96351.20;1795618;77;28762;-84
2021/03/15 03:21:23;;;;;;;37.03;19.65;;;;;;;2.38;67.26;96355.88;1811352;77;26218;-84
2021/03/15 03:23:57;;;;;;;41.88;20.02;;;;;;;2.34;67.26;96354.59;1820498;77;27728;-84
2021/03/15 03:26:28;;;;;;;36.77;19.27;;;;;;;2.25;67.24;96352.22;1800475;77;27308;-84
2021/03/15 03:28:58;;;;;;;34.05;18.40;;;;;;;2.27;67.45;96352.36;1801235;77;26440;-85
2021/03/15 03:31:30;;;;;;;40.25;18.52;;;;;;;2.28;67.50;96351.35;1811268;77;27491;-84
2021/03/15 03:34:00;;;;;;;40.30;19.42;;;;;;;2.28;67.47;96350.02;1802870;77;31372;-84
2021/03/15 03:36:29;;;;;;;35.83;19.55;;;;;;;2.30;67.49;96350.63;1787038;77;25738;-84
2021/03/15 03:38:56;;;;;;;49.70;22.62;;;;;;;2.37;67.63;96350.73;1829401;77;25925;-85
2021/03/15 03:41:24;;;;;;;59.53;27.17;;;;;;;2.32;67.53;96343.29;1824695;77;25774;-84
2021/03/15 03:43:51;;;;;;;59.83;25.05;;;;;;;2.30;67.61;96347.97;1799163;77;27550;-84
2021/03/15 03:46:18;;;;;;;58.95;25.48;;;;;;;2.29;67.63;96351.67;1795631;77;25762;-85
2021/03/15 03:48:45;;;;;;;53.80;25.23;;;;;;;2.24;67.62;96348.73;1809331;77;25715;-85
2021/03/15 03:51:17;;;;;;;46.75;21.15;;;;;;;2.24;67.64;96353.22;1812158;77;26358;-84
2021/03/15 03:53:56;;;;;;;53.60;23.10;;;;;;;2.20;67.71;96356.75;1832749;77;25777;-84
2021/03/15 03:56:44;;;;;;;49.33;21.45;;;;;;;2.19;67.81;96356.43;1832504;77;28478;-85
2021/03/15 03:59:15;;;;;;;42.78;21.77;;;;;;;2.14;67.83;96354.34;1809251;77;26271;-85
2021/03/15 04:01:45;;;;;;;42.93;20.70;;;;;;;2.12;67.95;96356.86;1809671;77;25340;-85
2021/03/15 04:04:17;;;;;;;41.80;20.92;;;;;;;2.12;68.14;96361.68;1798177;77;26791;-85
2021/03/15 04:06:46;;;;;;;44.27;19.50;;;;;;;2.14;68.23;96356.17;1809574;77;25799;-84
2021/03/15 04:09:16;;;;;;;33.75;18.60;;;;;;;2.13;68.28;96359.34;1777097;78;28969;-85
2021/03/15 04:11:51;;;;;;;31.12;17.65;;;;;;;2.07;68.31;96365.89;1763760;79;25908;-85
2021/03/15 04:14:41;;;;;;;33.60;17.37;;;;;;;2.03;68.43;96357.97;1763771;79;25748;-85
2021/03/15 04:17:12;;;;;;;33.58;17.35;;;;;;;2.00;68.58;96359.66;1786736;79;25870;-85
2021/03/15 04:19:44;;;;;;;30.40;17.12;;;;;;;1.97;68.60;96354.69;1771335;79;25528;-85
2021/03/15 04:22:12;;;;;;;;;;;;;;;2.00;68.73;96359.66;1779516;79;28468;-84
2021/03/15 04:24:41;;;;;;;37.70;18.23;;;;;;;2.00;68.82;96349.84;1782592;78;26105;-85
2021/03/15 04:27:10;;;;;;;40.43;19.92;;;;;;;1.97;68.78;96350.20;1784696;79;25792;-85
2021/03/15 04:29:40;;;;;;;35.50;17.67;;;;;;;1.94;68.90;96352.39;1763900;79;26743;-84
2021/03/15 04:32:10;;;;;;;41.33;19.40;;;;;;;1.95;68.92;96350.05;1777219;79;25826;-84
2021/03/15 04:34:39;;;;;;;36.42;18.77;;;;;;;1.98;68.99;96347.03;1768766;79;27488;-85
2021/03/15 04:37:09;;;;;;;36.70;19.10;;;;;;;2.01;68.96;96348.00;1763771;79;26082;-85
2021/03/15 04:39:38;;;;;;;41.25;19.27;;;;;;;2.06;68.97;96341.61;1763817;79;25890;-84
2021/03/15 04:42:07;;;;;;;46.98;20.90;;;;;;;2.08;68.92;96335.59;1792284;79;25827;-84
2021/03/15 04:44:38;;;;;;;46.02;21.07;;;;;;;2.09;68.86;96334.59;1795674;78;25872;-85
2021/03/15 04:47:06;;;;;;;42.43;21.42;;;;;;;2.10;68.93;96336.24;1773227;79;27565;-84
2021/03/15 04:49:34;;;;;;;50.63;23.67;;;;;;;2.07;68.84;96337.94;1795458;79;25744;-85
2021/03/15 04:52:02;;;;;;;59.70;24.85;;;;;;;2.05;68.81;96339.45;1782695;79;25769;-84
2021/03/15 04:54:30;;;;;;;59.18;25.97;;;;;;;2.07;68.86;96341.93;1789001;79;25863;-84
2021/03/15 04:56:59;;;;;;;58.48;26.12;;;;;;;2.09;68.94;96342.58;1764008;79;25882;-84
2021/03/15 04:59:28;;;;;;;65.85;27.22;;;;;;;2.09;68.96;96347.39;1790646;79;27582;-85
2021/03/15 05:01:57;;;;;;;61.33;27.10;;;;;;;2.07;68.97;96348.59;1783965;79;25829;-84
2021/03/15 05:04:25;;;;;;;50.45;25.17;;;;;;;2.04;68.94;96347.64;1786106;79;26414;-84
2021/03/15 05:06:54;;;;;;;51.23;24.95;;;;;;;2.05;69.00;96341.31;1775916;79;25890;-84
2021/03/15 05:09:21;;;;;;;48.78;24.40;;;;;;;2.12;69.04;96336.89;1798814;77;25796;-84
2021/03/15 05:11:51;;;;;;;54.90;26.07;;;;;;;2.12;69.05;96336.89;1822472;77;27496;-84
2021/03/15 05:14:19;;;;;;;54.20;25.77;;;;;;;2.08;69.11;96336.93;1837905;77;26162;-84
2021/03/15 05:16:47;;;;;;;48.68;25.62;;;;;;;2.02;69.11;96335.84;1827256;77;25732;-85
2021/03/15 05:19:15;;;;;;;46.48;24.43;;;;;;;2.03;69.28;96340.16;1823152;77;26712;-84
2021/03/15 05:21:45;;;;;;;45.55;22.98;;;;;;;2.04;69.34;96342.32;1823750;77;25768;-84
2021/03/15 05:24:13;;;;;;;46.60;22.85;;;;;;;2.07;69.42;96344.09;1808892;77;28440;-84
2021/03/15 05:26:42;;;;;;;41.00;22.70;;;;;;;2.07;69.44;96343.27;1833041;77;26210;-84
2021/03/15 05:29:16;;;;;;;41.65;21.65;;;;;;;2.07;69.49;96339.27;1809756;77;25648;-84
2021/03/15 05:31:48;;;;;;;43.35;23.38;;;;;;;2.08;69.54;96340.92;1804095;77;26770;-84
2021/03/15 05:34:19;;;;;;;41.08;22.50;;;;;;;2.12;69.63;96340.88;1806991;77;26579;-85
2021/03/15 05:36:47;;;;;;;43.48;22.50;;;;;;;2.18;69.63;96330.31;1842534;77;28514;-85
2021/03/15 05:39:15;;;;;;;40.33;21.68;;;;;;;2.21;69.57;96334.44;1820665;77;26107;-84
2021/03/15 05:41:50;;;;;;;46.48;23.07;;;;;;;2.24;69.63;96340.73;1813872;77;25719;-84
2021/03/15 05:45:11;;;;;;;50.03;22.82;;;;;;;2.27;69.67;96332.39;1819848;77;25840;-84
2021/03/15 05:48:17;;;;;;;49.48;24.35;;;;;;;2.28;69.68;96334.04;1828610;77;25776;-84
2021/03/15 05:51:07;;;;;;;50.12;25.23;;;;;;;2.31;69.64;96329.66;1839939;77;28568;-84
2021/03/15 05:53:49;;;;;;;53.75;27.17;;;;;;;2.38;69.60;96325.25;1838122;77;26254;-83
2021/03/15 05:56:45;;;;;;;53.83;28.77;;;;;;;2.44;69.50;96328.48;1842211;77;26461;-84
2021/03/15 05:59:38;;;;;;;49.50;27.05;;;;;;;2.52;69.59;96329.73;1838078;77;26041;-84
2021/03/15 06:02:29;;;;;;;71.22;34.58;;;;;;;2.63;69.49;96327.58;1836141;77;25796;-84
2021/03/15 06:05:24;;;;;;;91.15;38.95;;;;;;;2.60;69.38;96330.11;1838365;77;28494;-85
2021/03/15 06:08:14;;;;;;;85.83;38.17;;;;;;;2.66;69.37;96327.18;1819936;77;26224;-84
2021/03/15 06:11:08;;;;;;;89.97;40.67;;;;;;;2.75;69.31;96324.74;1821868;77;26257;-85
2021/03/15 06:13:36;;;;;;;89.07;41.70;;;;;;;2.73;69.22;96332.92;1808651;77;26861;-84
2021/03/15 06:16:07;;;;;;;94.62;43.60;;;;;;;2.75;69.24;96339.41;1828832;77;25846;-84
2021/03/15 06:18:35;;;;;;;97.00;44.98;;;;;;;2.80;69.24;96338.31;1826453;77;28374;-85
2021/03/15 06:21:03;;;;;;;100.80;46.30;;;;;;;2.83;69.20;96336.61;1826140;77;25404;-85
2021/03/15 06:23:31;;;;;;;90.95;44.38;;;;;;;2.84;69.18;96338.27;1837166;77;25808;-84
2021/03/15 06:25:58;;;;;;;86.53;43.73;;;;;;;2.87;69.25;96347.22;1839074;77;25956;-85
2021/03/15 06:28:26;;;;;;;88.03;43.60;;;;;;;2.94;69.26;96347.27;1839820;77;25684;-84
2021/03/15 06:30:55;;;;;;;79.07;39.70;;;;;;;3.01;69.22;96346.85;1836953;77;26752;-84
2021/03/15 06:33:23;;;;;;;86.63;41.85;;;;;;;2.99;69.15;96345.70;1819379;77;26145;-84
2021/03/15 06:35:57;;;;;;;82.33;41.48;;;;;;;2.95;69.29;96343.09;1804595;77;25753;-85
2021/03/15 06:38:28;;;;;;;87.50;47.20;;;;;;;2.99;69.35;96341.70;1801305;77;25871;-84
2021/03/15 06:41:00;;;;;;;89.25;49.55;;;;;;;3.05;69.23;96346.77;1838482;77;26246;-84
2021/03/15 06:43:28;;;;;;;;;;;;;;;3.08;69.21;96349.89;1840910;77;28440;-85
2021/03/15 06:45:56;;;;;;;89.95;50.98;;;;;;;3.10;69.19;96350.53;1825884;77;26250;-84
2021/03/15 06:48:25;;;;;;;85.07;51.28;;;;;;;3.14;69.18;96357.65;1829450;77;26597;-85
2021/03/15 06:50:55;;;;;;;84.90;51.35;;;;;;;3.19;69.23;96353.38;1829978;77;25828;-85
2021/03/15 06:53:23;;;;;;;112.60;57.90;;;;;;;3.28;69.17;96358.57;1820780;77;25689;-84
2021/03/15 06:55:53;;;;;;;139.62;72.58;;;;;;;3.39;69.11;96349.55;1817102;77;28464;-84
2021/03/15 06:58:28;;;;;;;77.47;43.95;;;;;;;3.47;69.02;96357.44;1800121;77;53356;-84
2021/03/15 07:01:18;;;;;;;76.67;39.78;;;;;;;3.52;69.00;96348.83;1802836;77;25785;-83
2021/03/15 07:03:49;;;;;;;75.55;39.53;;;;;;;3.54;68.94;96355.63;1798633;77;27169;-83
2021/03/15 07:06:20;;;;;;;78.33;43.00;;;;;;;3.66;68.89;96356.44;1809327;77;25742;-83
2021/03/15 07:08:48;;;;;;;86.02;46.95;;;;;;;3.65;68.93;96352.94;1809209;77;27441;-84
2021/03/15 07:11:26;;;;;;;84.25;48.30;;;;;;;3.67;68.98;96362.92;1806991;77;25387;-84
2021/03/15 07:13:53;;;;;;;78.12;40.75;;;;;;;3.74;68.85;96354.98;1786723;77;25873;-83
2021/03/15 07:16:31;;;;;;;74.42;39.25;;;;;;;3.82;68.85;96356.98;1826161;77;25822;-83
2021/03/15 07:19:02;;;;;;;86.87;45.43;;;;;;;3.89;68.75;96352.50;1798023;77;25758;-83
2021/03/15 07:21:38;;;;;;;79.47;43.90;;;;;;;3.96;68.87;96352.05;1832015;77;27500;-83
2021/03/15 07:24:11;;;;;;;72.55;37.48;;;;;;;4.02;68.70;96352.27;1826257;77;26018;-84
2021/03/15 07:26:44;;;;;;;;;;;;;;;4.05;68.63;96366.06;1812096;77;25323;-84
2021/03/15 07:29:19;;;;;;;71.45;34.53;;;;;;;4.02;68.71;96361.62;1809511;77;26042;-84
2021/03/15 07:31:49;;;;;;;64.10;31.73;;;;;;;4.01;68.78;96366.64;1814125;77;25819;-84
2021/03/15 07:34:20;;;;;;;65.62;35.05;;;;;;;4.04;68.65;96360.92;1826699;77;28618;-83
2021/03/15 07:37:00;;;;;;;82.20;40.40;;;;;;;4.03;68.64;96361.42;1797446;77;25831;-86
2021/03/15 07:39:29;;;;;;;82.00;40.45;;;;;;;3.93;68.57;96369.80;1814176;77;25757;-84
2021/03/15 07:42:00;;;;;;;62.80;35.40;;;;;;;3.84;68.79;96363.47;1823448;77;25826;-84
2021/03/15 07:44:30;;;;;;;59.63;32.70;;;;;;;3.81;69.08;96366.01;1822268;77;25753;-84
2021/03/15 07:47:04;;;;;;;57.20;30.35;;;;;;;3.81;69.25;96362.00;1802231;77;27493;-85
2021/03/15 07:49:42;;;;;;;50.78;27.70;;;;;;;3.79;69.53;96369.38;1811476;77;26475;-85
2021/03/15 07:52:12;;;;;;;53.92;29.45;;;;;;;3.75;69.61;96366.77;1832043;77;25741;-84
2021/03/15 07:54:45;;;;;;;57.60;31.82;;;;;;;3.69;69.57;96368.06;1834520;77;25833;-83
2021/03/15 07:57:23;;;;;;;62.15;33.90;;;;;;;3.74;69.75;96373.16;1811533;77;25924;-84
2021/03/15 07:59:57;;;;;;;75.03;33.98;;;;;;;3.82;69.87;96373.00;1819896;77;27681;-84
2021/03/15 08:02:27;;;;;;;68.55;32.30;;;;;;;3.83;69.90;96376.50;1842581;77;25736;-84
2021/03/15 08:04:57;;;;;;;49.80;28.80;;;;;;;3.81;69.95;96371.86;1832871;77;25735;-84
2021/03/15 08:07:25;;;;;;;57.33;32.33;;;;;;;3.75;69.83;96372.11;1830137;77;26034;-83
2021/03/15 08:09:56;;;;;;;102.78;46.15;;;;;;;3.79;69.99;96371.22;1802094;77;25838;-84
2021/03/15 08:12:36;;;;;;;158.40;64.53;;;;;;;3.88;69.93;96370.05;1812763;78;28380;-85
2021/03/15 08:15:09;;;;;;;211.95;84.62;;;;;;;3.96;70.06;96368.08;1812522;78;25795;-84
2021/03/15 08:17:46;;;;;;;216.20;77.87;;;;;;;4.11;70.08;96372.45;1812504;78;25794;-84
2021/03/15 08:20:14;;;;;;;124.92;48.78;;;;;;;4.20;70.02;96373.97;1810614;78;25987;-84
2021/03/15 08:22:49;;;;;;;77.17;35.83;;;;;;;4.25;69.75;96369.67;1811223;78;25803;-84
2021/03/15 08:25:17;;;;;;;142.35;51.73;;;;;;;4.30;69.62;96367.75;1821033;78;27654;-84
2021/03/15 08:27:48;;;;;;;140.45;50.52;;;;;;;4.34;69.43;96365.84;1800829;78;26194;-83
2021/03/15 08:30:29;;;;;;;94.60;41.35;;;;;;;4.41;69.74;96369.87;1807057;78;26637;-84
2021/03/15 08:32:58;;;;;;;71.02;34.55;;;;;;;4.52;69.69;96367.97;1800968;78;26872;-84
2021/03/15 08:35:26;;;;;;;71.53;33.90;;;;;;;4.53;69.43;96366.95;1788414;78;25834;-83
2021/03/15 08:38:04;;;;;;;74.27;38.15;;;;;;;4.62;69.29;96363.58;1796856;78;27490;-84
2021/03/15 08:40:48;;;;;;;60.03;34.08;;;;;;;4.69;68.86;96363.11;1807760;78;26139;-83
2021/03/15 08:43:23;;;;;;;62.20;37.38;;;;;;;4.78;68.63;96360.57;1788643;78;26387;-83
2021/03/15 08:46:07;;;;;;;58.45;33.48;;;;;;;4.86;68.39;96358.22;1802211;78;25647;-84
2021/03/15 08:48:42;;;;;;;55.50;29.55;;;;;;;4.92;68.12;96365.45;1792674;78;25846;-83
2021/03/15 08:51:16;;;;;;;48.80;28.62;;;;;;;4.94;68.23;96358.06;1802261;78;28492;-82
2021/03/15 08:53:50;;;;;;;46.48;27.73;;;;;;;5.06;68.22;96362.62;1817302;78;25336;-83
2021/03/15 08:56:23;;;;;;;40.92;24.10;;;;;;;5.19;67.95;96353.80;1799614;78;25848;-83
2021/03/15 08:58:53;;;;;;;47.58;25.77;;;;;;;5.35;67.83;96353.91;1788497;78;26445;-83
2021/03/15 09:01:25;;;;;;;43.83;25.02;;;;;;;5.42;67.48;96354.75;1807142;78;25733;-83
2021/03/15 09:04:04;;;;;;;49.65;28.80;;;;;;;5.42;67.35;96346.21;1821240;78;27487;-83
2021/03/15 09:06:37;;;;;;;43.15;25.23;;;;;;;5.47;67.17;96346.91;1803410;78;25765;-83
2021/03/15 09:09:11;;;;;;;44.27;25.88;;;;;;;5.56;66.90;96352.88;1813497;78;25908;-83
2021/03/15 09:11:45;;;;;;;40.73;24.67;;;;;;;5.53;66.71;96342.61;1803808;77;26831;-83
2021/03/15 09:14:22;;;;;;;45.60;26.12;;;;;;;5.48;66.48;96341.87;1787341;77;25849;-83
2021/03/15 09:16:57;;;;;;;39.70;23.02;;;;;;;5.39;66.44;96337.76;1803854;77;27585;-83
2021/03/15 09:19:41;;;;;;;41.55;24.50;;;;;;;5.24;66.34;96342.47;1820634;77;25755;-82
2021/03/15 09:22:30;;;;;;;43.65;23.92;;;;;;;5.26;66.53;96337.23;1809539;77;25852;-83
2021/03/15 09:25:07;;;;;;;38.83;22.60;;;;;;;5.37;66.52;96339.81;1837726;77;26750;-83
2021/03/15 09:27:47;;;;;;;49.60;27.73;;;;;;;5.48;66.54;96328.49;1825331;77;25889;-83
2021/03/15 09:30:25;;;;;;;42.25;22.98;;;;;;;5.61;66.33;96338.38;1788890;77;28477;-83
2021/03/15 09:32:55;;;;;;;43.80;23.25;;;;;;;5.65;66.08;96328.91;1800687;77;26212;-83
2021/03/15 09:35:33;;;;;;;33.20;20.57;;;;;;;5.69;65.97;96335.48;1832837;77;25705;-83
2021/03/15 09:38:04;;;;;;;38.92;21.52;;;;;;;5.59;65.83;96339.09;1809467;77;26832;-84
2021/03/15 09:40:49;;;;;;;46.65;25.88;;;;;;;5.12;65.59;96342.24;1825500;77;25746;-85
2021/03/15 09:43:23;;;;;;;41.98;24.67;;;;;;;4.76;66.05;96348.42;1809563;77;28484;-84
2021/03/15 09:46:00;;;;;;;46.00;26.68;;;;;;;4.52;66.53;96347.92;1801444;77;25834;-85
2021/03/15 09:48:30;;;;;;;41.73;23.35;;;;;;;4.45;66.95;96335.06;1787579;77;26519;-84
2021/03/15 09:51:03;;;;;;;44.93;25.57;;;;;;;4.45;67.42;96336.39;1809518;77;25908;-84
2021/03/15 09:53:30;;;;;;;42.45;25.05;;;;;;;4.56;67.59;96339.83;1830485;77;26018;-84
2021/03/15 09:56:07;;;;;;;41.85;25.60;;;;;;;4.67;67.47;96339.25;1838992;77;27486;-84
2021/03/15 09:58:35;;;;;;;41.13;22.17;;;;;;;4.60;67.15;96343.73;1825661;77;25824;-84
2021/03/15 10:01:16;;;;;;;44.50;25.77;;;;;;;4.64;67.19;96339.64;1816059;77;25688;-84
2021/03/15 10:03:53;;;;;;;45.93;26.07;;;;;;;4.60;67.15;96335.71;1821092;77;25814;-84
2021/03/15 10:06:22;;;;;;;38.35;23.57;;;;;;;4.66;67.15;96335.44;1811930;77;25665;-83
2021/03/15 10:08:51;;;;;;;40.95;24.75;;;;;;;4.67;67.07;96328.56;1825957;77;27545;-84
2021/03/15 10:11:20;;;;;;;40.45;23.95;;;;;;;4.63;66.94;96328.64;1799222;77;26407;-84
2021/03/15 10:14:03;;;;;;;42.90;25.55;;;;;;;4.74;66.86;96326.41;1809520;77;25749;-84
2021/03/15 10:16:31;;;;;;;43.60;22.93;;;;;;;4.67;66.71;96320.54;1793854;77;26555;-83
2021/03/15 10:18:58;;;;;;;46.33;24.47;;;;;;;4.71;66.87;96324.44;1809465;77;25757;-84
2021/03/15 10:21:28;;;;;;;42.10;25.55;;;;;;;4.68;66.72;96322.70;1807476;77;28370;-84
2021/03/15 10:23:56;;;;;;;43.58;25.37;;;;;;;4.78;66.65;96316.45;1796567;77;26013;-84
2021/03/15 10:26:24;;;;;;;44.38;26.15;;;;;;;4.86;66.52;96320.78;1809337;77;25745;-84
2021/03/15 10:28:53;;;;;;;42.88;24.90;;;;;;;4.83;66.54;96317.20;1809449;77;26834;-84
2021/03/15 10:31:22;;;;;;;45.60;24.60;;;;;;;4.87;66.55;96320.59;1794421;77;25722;-84
2021/03/15 10:33:51;;;;;;;41.20;24.87;;;;;;;4.95;66.59;96320.39;1809525;77;28232;-85
2021/03/15 10:36:24;;;;;;;38.23;24.63;;;;;;;5.05;66.38;96318.69;1809419;77;26284;-84
2021/03/15 10:38:52;;;;;;;42.35;24.72;;;;;;;5.13;66.26;96310.97;1826925;77;25841;-84
2021/03/15 10:41:20;;;;;;;37.15;22.35;;;;;;;5.19;65.93;96308.83;1819402;77;25944;-84
2021/03/15 10:43:48;;;;;;;38.10;21.02;;;;;;;5.30;66.07;96306.38;1816733;77;25785;-84
2021/03/15 10:46:22;;;;;;;33.95;19.80;;;;;;;5.48;65.82;96302.23;1809464;77;27561;-84
2021/03/15 10:48:49;;;;;;;33.78;21.37;;;;;;;5.62;65.37;96299.88;1814818;77;26238;-84
2021/03/15 10:51:18;;;;;;;36.53;21.10;;;;;;;5.70;65.17;96295.63;1807998;77;25840;-84
2021/03/15 10:53:53;;;;;;;35.05;20.70;;;;;;;5.77;65.12;96295.13;1831774;77;25797;-85
2021/03/15 10:56:23;;;;;;;36.20;20.80;;;;;;;5.99;64.90;96285.02;1833802;77;25674;-85
2021/03/15 10:58:51;;;;;;;34.38;20.15;;;;;;;6.20;64.64;96276.70;1812654;77;28446;-86
2021/03/15 11:01:24;;;;;;;47.67;26.30;;;;;;;6.45;64.53;96278.16;1828726;77;25784;-85
2021/03/15 11:03:52;;;;;;;43.40;24.00;;;;;;;6.72;64.06;96270.30;1799506;77;26183;-85
2021/03/15 11:06:22;;;;;;;35.30;22.30;;;;;;;7.03;63.89;96268.66;1813301;77;25807;-84
2021/03/15 11:08:56;;;;;;;40.52;22.90;;;;;;;7.20;62.90;96265.77;1809557;77;25822;-85
2021/03/15 11:11:30;;;;;;;36.40;22.35;;;;;;;7.25;62.59;96265.91;1801388;77;27486;-84
2021/03/15 11:14:02;;;;;;;35.95;21.33;;;;;;;7.31;62.06;96260.20;1786229;79;26147;-84
2021/03/15 11:16:31;;;;;;;;;;;;;;;7.27;61.42;96254.44;1773517;79;25734;-85
2021/03/15 11:19:12;;;;;;;46.37;24.98;;;;;;;7.29;61.04;96254.23;1786791;79;26039;-85
2021/03/15 11:21:43;;;;;;;73.30;38.33;;;;;;;7.25;61.05;96248.47;1780551;79;25805;-85
2021/03/15 11:24:11;;;;;;;34.83;22.42;;;;;;;7.30;60.94;96245.95;1779224;79;27381;-84
2021/03/15 11:26:54;;;;;;;32.98;19.92;;;;;;;7.35;60.77;96248.82;1768296;79;25809;-84
2021/03/15 11:29:43;;;;;;;32.00;19.87;;;;;;;7.35;60.59;96246.14;1778496;79;30715;-84
2021/03/15 11:32:14;;;;;;;31.80;19.92;;;;;;;7.38;60.33;96237.63;1789992;78;25819;-85
2021/03/15 11:34:47;;;;;;;31.25;20.08;;;;;;;7.34;60.02;96237.78;1768680;79;25817;-85
2021/03/15 11:37:15;;;;;;;35.35;20.17;;;;;;;7.36;60.32;96230.34;1784890;79;27523;-84
2021/03/15 11:39:45;;;;;;;38.48;21.93;;;;;;;7.37;60.10;96225.23;1776129;79;25867;-84
2021/03/15 11:45:08;;;;;;;34.58;21.25;;;;;;;7.41;59.78;96221.08;1870709;76;25609;-86
2021/03/15 11:47:36;;;;;;;36.25;23.42;;;;;;;7.35;60.02;96219.30;1804567;77;26084;-86
2021/03/15 11:50:04;;;;;;;40.52;25.85;;;;;;;7.37;60.19;96211.81;1841593;77;28547;-86
2021/03/15 11:52:37;;;;;;;35.73;23.70;;;;;;;7.43;60.31;96208.27;1841365;77;25757;-87
2021/03/15 11:55:01;;;;;;;34.67;22.58;;;;;;;7.56;60.16;96202.77;1828498;77;25768;-85